Time;durP1;ratioP1;P1;durP2;ratioP2;P2;SDS_P1;SDS_P2;PMS_P1;PMS_P2;Temp;Humidity;BMP_temperature;BMP_pressure;BME280_temperature;BME280_humidity;BME280_pressure;Samples;Min_cycle;Max_cycle;Signal;HPM_P1;HPM_P2
2023/12/17 00:00:32;;;;;;;14.40;6.05;;;;;;;6.87;100.00;102885.59;7398004;19;20078;-68
2023/12/17 00:03:01;;;;;;;14.13;6.57;;;;;;;6.86;100.00;102876.88;7396575;19;20445;-67
2023/12/17 00:05:29;;;;;;;20.48;7.07;;;;;;;6.86;100.00;102876.88;7397929;19;20074;-68
2023/12/17 00:08:00;;;;;;;12.63;6.75;;;;;;;6.85;100.00;102885.56;7397934;19;20014;-68
2023/12/17 00:10:29;;;;;;;14.30;6.70;;;;;;;6.85;100.00;102890.78;7398306;19;20078;-68
2023/12/17 00:12:58;;;;;;;14.85;6.53;;;;;;;6.84;100.00;102895.09;7397154;19;20078;-68
2023/12/17 00:15:26;;;;;;;13.68;6.20;;;;;;;6.84;100.00;102899.44;7396727;19;20082;-68
2023/12/17 00:17:55;;;;;;;12.75;6.63;;;;;;;6.84;100.00;102889.00;7395801;19;20085;-68
2023/12/17 00:20:23;;;;;;;18.83;7.45;;;;;;;6.83;100.00;102892.44;7395296;19;20380;-68
2023/12/17 00:22:51;;;;;;;14.75;6.22;;;;;;;6.83;100.00;102895.94;7396521;19;20066;-68
2023/12/17 00:25:22;;;;;;;16.23;6.93;;;;;;;6.81;100.00;102901.94;7397364;19;20014;-69
2023/12/17 00:27:51;;;;;;;17.08;7.78;;;;;;;6.82;100.00;102903.72;7397750;19;20075;-68
2023/12/17 00:30:19;;;;;;;16.02;7.28;;;;;;;6.79;100.00;102899.28;7397255;19;20014;-68
2023/12/17 00:32:48;;;;;;;19.63;7.22;;;;;;;6.80;100.00;102901.06;7396340;19;20498;-68
2023/12/17 00:35:17;;;;;;;15.45;7.32;;;;;;;6.80;100.00;102893.25;7397069;19;20015;-68
2023/12/17 00:37:45;;;;;;;18.33;7.43;;;;;;;6.79;100.00;102890.59;7396809;19;20018;-68
2023/12/17 00:40:13;;;;;;;17.23;6.75;;;;;;;6.78;100.00;102894.03;7397029;19;20090;-68
2023/12/17 00:42:46;;;;;;;12.63;6.63;;;;;;;6.76;100.00;102888.78;7395951;19;20023;-68
2023/12/17 00:45:14;;;;;;;14.18;6.97;;;;;;;6.75;100.00;102873.97;7399387;19;20006;-68
2023/12/17 00:47:43;;;;;;;12.40;6.75;;;;;;;6.73;100.00;102880.84;7398672;19;20082;-68
2023/12/17 00:50:12;;;;;;;19.35;7.07;;;;;;;6.72;100.00;102879.09;7396866;19;20090;-68
2023/12/17 00:52:40;;;;;;;15.30;6.80;;;;;;;6.71;100.00;102886.88;7396199;19;20012;-68
2023/12/17 00:55:10;;;;;;;17.63;7.75;;;;;;;6.68;100.00;102885.97;7396093;19;20467;-68
2023/12/17 00:57:39;;;;;;;17.40;7.15;;;;;;;6.68;100.00;102893.78;7396011;19;20082;-68
2023/12/17 01:00:11;;;;;;;14.65;6.43;;;;;;;6.66;100.00;102892.84;7395935;19;20014;-67
2023/12/17 01:02:39;;;;;;;16.65;8.75;;;;;;;6.65;100.00;102893.69;7396018;19;20156;-67
2023/12/17 01:05:09;;;;;;;13.52;7.38;;;;;;;6.64;100.00;102878.88;7395649;19;20074;-67
2023/12/17 01:07:38;;;;;;;19.77;7.82;;;;;;;6.63;100.00;102879.69;7394196;19;20078;-67
2023/12/17 01:10:08;;;;;;;18.80;8.23;;;;;;;6.61;100.00;102868.34;7395705;19;20007;-67
2023/12/17 01:12:58;;;;;;;19.98;8.50;;;;;;;6.59;100.00;102861.34;7395279;19;20017;-67
2023/12/17 01:15:42;;;;;;;18.60;7.80;;;;;;;6.57;100.00;102863.00;7394466;19;20351;-67
2023/12/17 01:18:10;;;;;;;18.55;8.43;;;;;;;6.56;100.00;102859.53;7395484;19;20549;-67
2023/12/17 01:20:40;;;;;;;20.60;8.60;;;;;;;6.56;100.00;102871.66;7395443;19;20070;-67
2023/12/17 01:23:08;;;;;;;19.67;8.50;;;;;;;6.54;100.00;102870.75;7394695;19;20014;-67
2023/12/17 01:25:37;;;;;;;20.33;9.20;;;;;;;6.52;100.00;102868.06;7395548;19;20020;-67
2023/12/17 01:28:05;;;;;;;16.48;8.27;;;;;;;6.52;100.00;102860.25;7395563;19;20082;-66
2023/12/17 01:30:36;;;;;;;19.75;8.52;;;;;;;6.50;100.00;102860.22;7395458;19;20010;-67
2023/12/17 01:33:05;;;;;;;20.58;9.13;;;;;;;6.47;100.00;102856.63;7394820;19;20014;-67
2023/12/17 01:35:34;;;;;;;17.45;7.63;;;;;;;6.46;100.00;102866.19;7395246;19;20011;-67
2023/12/17 01:38:02;;;;;;;15.57;8.52;;;;;;;6.45;100.00;102872.22;7395270;19;20027;-67
2023/12/17 01:40:30;;;;;;;19.02;8.38;;;;;;;6.44;100.00;102887.84;7395246;19;20010;-69
2023/12/17 01:42:59;;;;;;;18.35;8.30;;;;;;;6.44;100.00;102903.50;7399066;19;20082;-68
2023/12/17 01:45:28;;;;;;;21.02;8.90;;;;;;;6.41;100.00;102906.88;7402697;19;20414;-68
2023/12/17 01:47:59;;;;;;;18.30;8.55;;;;;;;6.40;100.00;102899.91;7402592;19;20078;-69
2023/12/17 01:50:28;;;;;;;17.95;9.07;;;;;;;6.40;100.00;102893.81;7399349;19;20541;-68
2023/12/17 01:52:58;;;;;;;17.30;9.02;;;;;;;6.38;100.00;102901.56;7401196;19;20532;-68
2023/12/17 01:55:28;;;;;;;17.00;8.80;;;;;;;6.36;100.00;102911.94;7401959;19;20065;-69
2023/12/17 01:57:56;;;;;;;18.45;9.40;;;;;;;6.35;100.00;102912.78;7402230;19;20043;-68
2023/12/17 02:00:25;;;;;;;20.52;9.13;;;;;;;6.34;100.00;102911.03;7401821;19;20491;-68
2023/12/17 02:02:55;;;;;;;18.45;9.43;;;;;;;6.33;100.00;102914.47;7400903;19;20082;-68
2023/12/17 02:05:26;;;;;;;15.10;9.07;;;;;;;6.33;100.00;102919.69;7401639;19;20484;-68
2023/12/17 02:07:54;;;;;;;20.05;9.70;;;;;;;6.32;100.00;102915.31;7401618;19;20074;-68
2023/12/17 02:10:23;;;;;;;22.55;10.68;;;;;;;6.33;100.00;102919.69;7398616;19;20010;-68
2023/12/17 02:12:51;;;;;;;23.92;10.02;;;;;;;6.32;100.00;102912.72;7399717;19;20089;-68
2023/12/17 02:15:20;;;;;;;18.83;10.27;;;;;;;6.31;100.00;102916.16;7400937;19;20019;-69
2023/12/17 02:17:48;;;;;;;18.98;9.75;;;;;;;6.30;100.00;102927.41;7401968;19;20023;-69
2023/12/17 02:20:17;;;;;;;19.15;9.88;;;;;;;6.30;100.00;102918.72;7401595;19;20090;-69
2023/12/17 02:22:51;;;;;;;23.00;10.07;;;;;;;6.30;100.00;102923.94;7400823;19;20038;-67
2023/12/17 02:25:22;;;;;;;21.52;10.90;;;;;;;6.29;100.00;102928.28;7401819;19;20018;-67
2023/12/17 02:27:50;;;;;;;20.10;10.70;;;;;;;6.30;100.00;102926.53;7401813;19;20021;-68
2023/12/17 02:30:19;;;;;;;19.30;9.65;;;;;;;6.31;100.00;102933.53;7401269;19;20023;-68
2023/12/17 02:32:47;;;;;;;19.73;10.98;;;;;;;6.31;100.00;102937.00;7398120;19;20477;-68
2023/12/17 02:35:16;;;;;;;21.08;8.95;;;;;;;6.30;100.00;102932.63;7401095;19;20031;-68
2023/12/17 02:37:44;;;;;;;19.00;9.85;;;;;;;6.29;100.00;102928.28;7398121;19;20379;-68
2023/12/17 02:40:14;;;;;;;17.70;9.57;;;;;;;6.29;100.00;102933.47;7400939;19;20541;-68
2023/12/17 02:42:45;;;;;;;24.48;10.38;;;;;;;6.28;100.00;102926.50;7400294;19;20078;-68
2023/12/17 02:45:14;;;;;;;21.15;9.85;;;;;;;6.28;100.00;102939.53;7398318;19;20094;-67
2023/12/17 02:47:43;;;;;;;16.73;9.07;;;;;;;6.28;100.00;102934.31;7400778;19;20010;-68
2023/12/17 02:50:13;;;;;;;21.00;10.80;;;;;;;6.26;100.00;102929.88;7400213;19;20498;-68
2023/12/17 02:52:41;;;;;;;19.15;10.20;;;;;;;6.25;100.00;102918.56;7399376;19;20035;-68
2023/12/17 02:55:10;;;;;;;19.65;10.32;;;;;;;6.25;100.00;102920.28;7398383;19;20429;-68
2023/12/17 02:57:39;;;;;;;18.48;9.95;;;;;;;6.25;100.00;102915.09;7400395;19;20036;-67
2023/12/17 03:00:12;;;;;;;15.98;10.02;;;;;;;6.23;100.00;102904.63;7400326;19;20023;-68
2023/12/17 03:02:40;;;;;;;17.30;9.50;;;;;;;6.22;100.00;102897.63;7400208;19;20078;-67
2023/12/17 03:05:10;;;;;;;20.75;9.77;;;;;;;6.21;100.00;102901.06;7398165;19;20085;-68
2023/12/17 03:07:38;;;;;;;22.20;9.75;;;;;;;6.20;100.00;102899.28;7401102;19;20036;-68
2023/12/17 03:10:08;;;;;;;21.60;9.93;;;;;;;6.17;100.00;102897.47;7400875;19;20009;-68
2023/12/17 03:12:38;;;;;;;19.75;11.10;;;;;;;6.19;100.00;102900.13;7399259;19;20797;-67
2023/12/17 03:15:10;;;;;;;16.88;9.55;;;;;;;6.18;100.00;102894.03;7399702;19;20085;-67
2023/12/17 03:17:38;;;;;;;20.08;10.55;;;;;;;6.19;100.00;102895.81;7399259;19;20473;-68
2023/12/17 03:20:09;;;;;;;19.63;10.48;;;;;;;6.18;100.00;102896.63;7399529;19;20027;-67
2023/12/17 03:22:37;;;;;;;18.33;9.88;;;;;;;6.19;100.00;102894.91;7399557;19;20035;-68
2023/12/17 03:25:07;;;;;;;18.17;9.70;;;;;;;6.19;100.00;102894.91;7397442;19;20087;-67
2023/12/17 03:27:36;;;;;;;19.02;10.55;;;;;;;6.17;100.00;102894.00;7398874;19;20381;-67
2023/12/17 03:30:04;;;;;;;20.15;10.05;;;;;;;6.18;100.00;102895.75;7398779;19;20548;-68
2023/12/17 03:32:36;;;;;;;18.17;9.88;;;;;;;6.17;100.00;102894.00;7398398;19;20014;-68
2023/12/17 03:35:04;;;;;;;21.52;9.82;;;;;;;6.16;100.00;102889.59;7399354;19;20024;-68
2023/12/17 03:37:32;;;;;;;18.40;10.15;;;;;;;6.15;100.00;102886.09;7399057;19;20011;-67
2023/12/17 03:40:01;;;;;;;21.67;10.38;;;;;;;6.19;100.00;102887.09;7398807;19;20027;-67
2023/12/17 03:42:29;;;;;;;21.67;10.73;;;;;;;6.20;100.00;102886.25;7398115;19;20070;-67
2023/12/17 03:44:58;;;;;;;26.38;11.15;;;;;;;6.20;100.00;102883.66;7396465;19;20024;-68
2023/12/17 03:47:27;;;;;;;19.30;11.07;;;;;;;6.22;100.00;102881.97;7396547;19;20018;-67
2023/12/17 03:49:58;;;;;;;20.25;10.95;;;;;;;6.23;100.00;102880.25;7398534;19;20021;-67
2023/12/17 03:52:27;;;;;;;24.35;11.88;;;;;;;6.24;100.00;102884.63;7398135;19;20074;-67
2023/12/17 03:54:55;;;;;;;19.67;10.30;;;;;;;6.25;100.00;102884.66;7398404;19;20017;-67
2023/12/17 03:57:24;;;;;;;22.20;11.55;;;;;;;6.25;100.00;102884.66;7396309;19;20022;-67
2023/12/17 03:59:50;;;;;;;16.38;9.90;;;;;;;6.26;100.00;102894.25;7397833;19;20502;-67
2023/12/17 04:02:19;;;;;;;18.98;9.85;;;;;;;6.27;100.00;102889.91;7398055;19;20014;-67
2023/12/17 04:04:47;;;;;;;21.10;9.80;;;;;;;6.27;100.00;102895.13;7396112;19;20020;-68
2023/12/17 04:07:18;;;;;;;21.92;11.00;;;;;;;6.27;100.00;102893.44;7397652;19;20422;-68
2023/12/17 04:09:47;;;;;;;20.48;10.32;;;;;;;6.27;100.00;102896.03;7398315;19;20015;-68
2023/12/17 04:12:15;;;;;;;24.33;10.18;;;;;;;6.29;100.00;102893.47;7397466;19;20010;-68
2023/12/17 04:14:44;;;;;;;17.13;9.98;;;;;;;6.29;100.00;102885.66;7395435;19;20082;-67
2023/12/17 04:17:12;;;;;;;23.63;11.02;;;;;;;6.28;100.00;102887.38;7395429;19;20023;-68
2023/12/17 04:19:41;;;;;;;19.38;9.82;;;;;;;6.28;100.00;102889.09;7397685;19;20015;-68
2023/12/17 04:22:09;;;;;;;19.63;11.15;;;;;;;6.28;100.00;102892.59;7397643;19;20082;-68
2023/12/17 04:24:41;;;;;;;20.42;10.93;;;;;;;6.27;100.00;102890.81;7395115;19;20086;-68
2023/12/17 04:27:09;;;;;;;22.13;10.48;;;;;;;6.27;100.00;102892.53;7397099;19;20083;-68
2023/12/17 04:29:37;;;;;;;23.05;10.30;;;;;;;6.25;100.00;102896.84;7397344;19;20085;-68
2023/12/17 04:32:07;;;;;;;22.92;11.68;;;;;;;6.24;100.00;102892.44;7397260;19;20018;-67
2023/12/17 04:34:35;;;;;;;23.50;10.40;;;;;;;6.23;100.00;102888.97;7394880;19;20541;-68
2023/12/17 04:37:04;;;;;;;18.50;10.15;;;;;;;6.21;100.00;102888.03;7394982;19;20436;-68
2023/12/17 04:39:32;;;;;;;24.65;11.13;;;;;;;6.21;100.00;102887.16;7396977;19;20018;-68
2023/12/17 04:42:03;;;;;;;20.77;11.85;;;;;;;6.20;100.00;102894.06;7396574;19;20537;-68
2023/12/17 04:44:31;;;;;;;15.95;10.48;;;;;;;6.21;100.00;102898.47;7395233;19;20073;-68
2023/12/17 04:47:00;;;;;;;22.17;10.93;;;;;;;6.19;100.00;102889.69;7396728;19;20082;-68
2023/12/17 04:49:28;;;;;;;20.95;10.85;;;;;;;6.20;100.00;102894.06;7396665;19;20074;-68
2023/12/17 04:51:57;;;;;;;20.10;11.77;;;;;;;6.20;100.00;102888.84;7396282;19;20079;-68
2023/12/17 04:54:26;;;;;;;20.92;10.63;;;;;;;6.18;100.00;102881.00;7394700;19;20085;-68
2023/12/17 04:56:55;;;;;;;24.20;11.50;;;;;;;6.19;100.00;102876.66;7395933;19;20010;-68
2023/12/17 04:59:27;;;;;;;19.70;11.00;;;;;;;6.20;100.00;102875.81;7394319;19;20390;-69
2023/12/17 05:02:03;;;;;;;21.10;9.23;;;;;;;6.19;100.00;102876.66;7396739;19;20011;-68
2023/12/17 05:04:31;;;;;;;21.15;10.77;;;;;;;6.18;100.00;102867.97;7394477;19;20078;-68
2023/12/17 05:06:59;;;;;;;22.15;10.05;;;;;;;6.19;100.00;102868.84;7394283;19;20094;-67
2023/12/17 05:09:35;;;;;;;15.60;10.18;;;;;;;6.18;100.00;102869.69;7395718;19;20423;-67
2023/12/17 05:12:03;;;;;;;16.73;9.48;;;;;;;6.19;100.00;102879.25;7396007;19;20035;-68
2023/12/17 05:14:34;;;;;;;17.52;9.63;;;;;;;6.19;100.00;102874.97;7394038;19;20492;-67
2023/12/17 05:17:02;;;;;;;19.80;9.45;;;;;;;6.20;100.00;102875.81;7392050;19;20101;-67
2023/12/17 05:19:31;;;;;;;18.50;9.82;;;;;;;6.20;100.00;102881.03;7395542;19;20079;-67
2023/12/17 05:21:59;;;;;;;21.65;10.93;;;;;;;6.22;100.00;102884.59;7395297;19;20066;-67
2023/12/17 05:24:28;;;;;;;20.45;10.65;;;;;;;6.23;100.00;102878.53;7393570;19;20536;-69
2023/12/17 05:26:56;;;;;;;18.08;10.10;;;;;;;6.23;100.00;102878.53;7395606;19;20095;-68
2023/12/17 05:29:24;;;;;;;18.85;9.43;;;;;;;6.23;100.00;102873.34;7395892;19;20094;-67
2023/12/17 05:31:55;;;;;;;18.33;9.63;;;;;;;6.19;100.00;102866.22;7399256;19;20050;-67
2023/12/17 05:34:24;;;;;;;17.27;9.75;;;;;;;6.24;100.00;102874.19;7393768;19;20014;-68
2023/12/17 05:36:59;;;;;;;17.75;9.88;;;;;;;6.24;100.00;102879.41;7395380;19;20074;-67
2023/12/17 05:39:27;;;;;;;15.25;9.50;;;;;;;6.20;100.00;102873.22;7395040;19;20493;-69
2023/12/17 05:41:56;;;;;;;16.73;9.77;;;;;;;6.24;100.00;102880.28;7395162;19;20034;-69
2023/12/17 05:44:24;;;;;;;17.98;10.00;;;;;;;6.26;100.00;102882.97;7393340;19;20086;-67
2023/12/17 05:46:55;;;;;;;19.75;9.73;;;;;;;6.26;100.00;102877.75;7395066;19;20021;-67
2023/12/17 05:49:24;;;;;;;22.90;10.38;;;;;;;6.26;100.00;102873.41;7394719;19;20073;-67
2023/12/17 05:51:53;;;;;;;15.93;9.18;;;;;;;6.27;100.00;102875.19;7394620;19;20015;-67
2023/12/17 05:54:21;;;;;;;16.58;9.27;;;;;;;6.27;100.00;102877.78;7392759;19;20461;-68
2023/12/17 05:56:50;;;;;;;16.85;9.55;;;;;;;6.27;100.00;102887.31;7394826;19;20074;-67
2023/12/17 05:59:18;;;;;;;13.43;9.98;;;;;;;6.27;100.00;102883.00;7394786;19;20077;-67
2023/12/17 06:01:47;;;;;;;18.63;9.93;;;;;;;6.28;100.00;102886.47;7394290;19;20010;-68
2023/12/17 06:04:18;;;;;;;19.95;10.38;;;;;;;6.28;100.00;102897.81;7392378;19;20078;-67
2023/12/17 06:06:46;;;;;;;19.58;9.73;;;;;;;6.30;100.00;102900.47;7394236;19;20069;-67
2023/12/17 06:09:15;;;;;;;16.92;9.85;;;;;;;6.29;100.00;102898.69;7394188;19;20082;-67
2023/12/17 06:11:44;;;;;;;14.68;8.57;;;;;;;6.29;100.00;102896.97;7394463;19;20010;-67
2023/12/17 06:14:13;;;;;;;16.90;10.32;;;;;;;6.28;100.00;102892.59;7392297;19;20032;-67
2023/12/17 06:16:44;;;;;;;19.63;9.82;;;;;;;6.28;100.00;102890.00;7392968;19;20086;-67
2023/12/17 06:19:13;;;;;;;17.88;9.23;;;;;;;6.28;100.00;102897.81;7394216;19;20070;-67
2023/12/17 06:21:44;;;;;;;18.70;9.38;;;;;;;6.29;100.00;102896.97;7394259;19;20077;-67
2023/12/17 06:24:13;;;;;;;17.73;9.50;;;;;;;6.29;100.00;102902.19;7392594;19;20082;-67
2023/12/17 06:26:41;;;;;;;18.85;10.27;;;;;;;6.29;100.00;102899.59;7393635;19;20018;-67
2023/12/17 06:29:13;;;;;;;17.58;10.27;;;;;;;6.30;100.00;102898.72;7399808;19;20070;-68
2023/12/17 06:31:41;;;;;;;18.00;10.55;;;;;;;6.31;100.00;102908.31;7401006;19;20518;-67
2023/12/17 06:34:10;;;;;;;14.60;9.60;;;;;;;6.31;100.00;102899.63;7398627;19;20485;-67
2023/12/17 06:36:38;;;;;;;17.52;10.30;;;;;;;6.32;100.00;102897.06;7400729;19;20416;-67
2023/12/17 06:39:10;;;;;;;17.50;10.50;;;;;;;6.33;100.00;102885.81;7401068;19;20073;-67
2023/12/17 06:41:44;;;;;;;14.38;9.27;;;;;;;6.34;100.00;102887.56;7401395;19;20032;-67
2023/12/17 06:44:13;;;;;;;18.90;11.55;;;;;;;6.34;100.00;102882.38;7398394;19;20082;-67
2023/12/17 06:46:41;;;;;;;15.82;10.70;;;;;;;6.35;100.00;102884.09;7398150;19;20078;-68
2023/12/17 06:49:10;;;;;;;17.10;10.15;;;;;;;6.38;100.00;102887.66;7400698;19;20069;-67
2023/12/17 06:51:41;;;;;;;15.38;10.23;;;;;;;6.39;100.00;102887.69;7400659;19;20036;-67
2023/12/17 06:54:12;;;;;;;17.70;9.95;;;;;;;6.41;100.00;102890.34;7398694;19;20078;-68
2023/12/17 06:56:42;;;;;;;14.95;9.65;;;;;;;6.42;100.00;102890.41;7400251;19;20532;-68
2023/12/17 06:59:10;;;;;;;12.07;9.27;;;;;;;6.44;100.00;102900.88;7400810;19;20028;-68
2023/12/17 07:01:38;;;;;;;18.40;10.30;;;;;;;6.44;100.00;102904.34;7400438;19;20074;-68
2023/12/17 07:04:07;;;;;;;13.32;9.77;;;;;;;6.46;100.00;102907.91;7398240;19;20085;-67
2023/12/17 07:06:36;;;;;;;13.93;9.23;;;;;;;6.48;100.00;102916.69;7397563;19;20472;-65
2023/12/17 07:09:04;;;;;;;16.58;10.05;;;;;;;6.50;100.00;102919.31;7399708;19;20376;-68
2023/12/17 07:11:35;;;;;;;14.52;9.57;;;;;;;6.52;100.00;102918.53;7400049;19;20442;-68
2023/12/17 07:14:10;;;;;;;14.68;8.70;;;;;;;6.55;100.00;102917.72;7398282;19;20102;-68
2023/12/17 07:16:39;;;;;;;14.90;9.30;;;;;;;6.58;100.00;102916.94;7397097;19;20040;-68
2023/12/17 07:19:07;;;;;;;13.23;8.85;;;;;;;6.62;100.00;102914.47;7399623;19;20022;-68
2023/12/17 07:21:36;;;;;;;13.68;9.15;;;;;;;6.64;100.00;102923.22;7399660;19;20078;-68
2023/12/17 07:24:04;;;;;;;11.85;9.25;;;;;;;6.69;100.00;102936.41;7397048;19;20014;-68
2023/12/17 07:26:35;;;;;;;11.95;8.88;;;;;;;6.72;100.00;102935.59;7397098;19;20019;-67
2023/12/17 07:29:04;;;;;;;11.68;8.40;;;;;;;6.75;100.00;102936.59;7399852;19;20021;-66
2023/12/17 07:31:32;;;;;;;12.90;9.00;;;;;;;6.77;100.00;102928.78;7399280;19;20086;-69
2023/12/17 07:34:00;;;;;;;15.90;9.18;;;;;;;6.80;100.00;102921.94;7397076;19;20070;-67
2023/12/17 07:36:29;;;;;;;15.13;8.70;;;;;;;6.81;100.00;102913.28;7398839;19;20552;-67
2023/12/17 07:38:57;;;;;;;11.20;8.30;;;;;;;6.78;100.00;102896.66;7398169;19;20376;-67
2023/12/17 07:41:26;;;;;;;14.05;9.10;;;;;;;6.85;100.00;102896.00;7398122;19;20037;-68
2023/12/17 07:43:57;;;;;;;10.38;7.90;;;;;;;6.87;100.00;102894.28;7397227;19;20070;-68
2023/12/17 07:46:25;;;;;;;13.05;8.52;;;;;;;6.89;100.00;102892.63;7397312;19;20018;-68
2023/12/17 07:48:53;;;;;;;14.90;9.20;;;;;;;6.91;100.00;102888.31;7398077;19;20019;-68
2023/12/17 07:51:22;;;;;;;10.70;8.27;;;;;;;6.93;100.00;102886.63;7399033;19;20074;-68
2023/12/17 07:53:51;;;;;;;11.93;8.75;;;;;;;6.94;100.00;102877.97;7400401;19;20015;-68
2023/12/17 07:56:19;;;;;;;13.32;8.95;;;;;;;6.95;100.00;102889.28;7398683;19;20078;-67
2023/12/17 07:58:48;;;;;;;11.68;8.45;;;;;;;6.96;100.00;102893.66;7398325;19;20082;-67
2023/12/17 08:01:19;;;;;;;12.88;8.75;;;;;;;6.97;100.00;102898.06;7398228;19;20018;-68
2023/12/17 08:03:53;;;;;;;12.35;8.02;;;;;;;6.94;100.00;102905.81;7396376;19;20086;-67
2023/12/17 08:06:22;;;;;;;13.95;9.88;;;;;;;6.95;100.00;102908.47;7396771;19;20086;-68
2023/12/17 08:08:50;;;;;;;16.08;9.88;;;;;;;6.97;100.00;102904.16;7397505;19;20074;-68
2023/12/17 08:11:19;;;;;;;14.50;9.10;;;;;;;6.97;100.00;102909.38;7397942;19;20098;-68
2023/12/17 08:13:47;;;;;;;16.73;9.63;;;;;;;6.98;100.00;102908.53;7396681;19;20014;-68
2023/12/17 08:16:18;;;;;;;16.25;10.15;;;;;;;7.00;100.00;102917.28;7396953;19;20010;-68
2023/12/17 08:18:47;;;;;;;12.48;9.55;;;;;;;7.01;100.00;102924.28;7397312;19;20074;-68
2023/12/17 08:21:15;;;;;;;12.35;8.45;;;;;;;7.02;100.00;102927.78;7397214;19;20429;-68
2023/12/17 08:23:44;;;;;;;13.60;9.07;;;;;;;7.03;100.00;102931.25;7396201;19;20073;-67
2023/12/17 08:26:12;;;;;;;17.05;9.18;;;;;;;7.04;100.00;102922.59;7396220;19;20074;-68
2023/12/17 08:28:41;;;;;;;16.73;9.98;;;;;;;7.04;100.00;102917.38;7397231;19;20011;-67
2023/12/17 08:31:10;;;;;;;15.15;8.95;;;;;;;7.05;100.00;102920.03;7395551;19;20019;-67
2023/12/17 08:33:41;;;;;;;15.32;9.02;;;;;;;7.06;100.00;102915.69;7396299;19;20010;-67
2023/12/17 08:36:11;;;;;;;14.73;9.30;;;;;;;7.08;100.00;102919.25;7397491;19;20164;-67
2023/12/17 08:38:43;;;;;;;12.10;8.55;;;;;;;7.09;100.00;102921.00;7395238;19;20086;-67
2023/12/17 08:41:12;;;;;;;13.35;9.23;;;;;;;7.06;100.00;102913.97;7396704;19;20545;-67
2023/12/17 08:43:41;;;;;;;14.15;8.73;;;;;;;7.10;100.00;102909.72;7394935;19;20540;-67
2023/12/17 08:46:09;;;;;;;12.18;8.57;;;;;;;7.10;100.00;102905.41;7395844;19;20062;-68
2023/12/17 08:48:37;;;;;;;13.80;8.85;;;;;;;7.13;100.00;102909.81;7397169;19;20015;-66
2023/12/17 08:51:09;;;;;;;12.82;8.95;;;;;;;7.14;100.00;102899.41;7394255;19;20010;-66
2023/12/17 08:53:37;;;;;;;14.95;10.07;;;;;;;7.16;100.00;102899.44;7395524;19;20085;-67
2023/12/17 08:56:06;;;;;;;12.75;9.07;;;;;;;7.20;100.00;102906.50;7396386;19;20028;-66
2023/12/17 08:58:34;;;;;;;14.80;9.02;;;;;;;7.22;100.00;102912.66;7394777;19;20019;-67
2023/12/17 09:01:03;;;;;;;15.30;9.57;;;;;;;7.23;100.00;102914.44;7396328;19;20074;-67
2023/12/17 09:03:31;;;;;;;11.60;8.60;;;;;;;7.23;100.00;102916.16;7394904;19;20078;-67
2023/12/17 09:06:01;;;;;;;17.63;9.25;;;;;;;7.23;100.00;102929.19;7394265;19;20018;-70
2023/12/17 09:08:32;;;;;;;13.98;9.02;;;;;;;7.21;100.00;102937.00;7393989;19;20015;-67
2023/12/17 09:11:01;;;;;;;16.80;9.95;;;;;;;7.21;100.00;102923.94;7396427;19;20007;-67
2023/12/17 09:13:30;;;;;;;12.02;8.52;;;;;;;7.20;100.00;102924.78;7394962;19;20078;-70
2023/12/17 09:15:58;;;;;;;14.48;8.82;;;;;;;7.18;100.00;102923.88;7395036;19;20430;-68
2023/12/17 09:18:26;;;;;;;14.77;8.15;;;;;;;7.20;100.00;102929.13;7393849;19;20066;-67
2023/12/17 09:20:55;;;;;;;13.63;8.00;;;;;;;7.19;100.00;102941.31;7395258;19;20090;-68
2023/12/17 09:23:24;;;;;;;13.27;8.25;;;;;;;7.20;100.00;102939.56;7393844;19;20032;-67
2023/12/17 09:25:57;;;;;;;13.43;8.90;;;;;;;7.20;100.00;102932.59;7394724;19;20074;-67
2023/12/17 09:28:25;;;;;;;14.88;8.38;;;;;;;7.20;100.00;102932.59;7396146;19;20025;-67
2023/12/17 09:30:53;;;;;;;17.02;9.27;;;;;;;7.22;100.00;102932.69;7395590;19;20493;-67
2023/12/17 09:33:23;;;;;;;14.52;9.00;;;;;;;7.23;100.00;102937.03;7394508;19;20091;-67
2023/12/17 09:35:52;;;;;;;15.20;10.43;;;;;;;7.23;100.00;102935.31;7394935;19;20392;-67
2023/12/17 09:38:20;;;;;;;15.68;9.52;;;;;;;7.24;100.00;102936.19;7395405;19;20079;-68
2023/12/17 09:40:48;;;;;;;13.13;8.73;;;;;;;7.24;100.00;102937.09;7395185;19;20159;-68
2023/12/17 09:43:20;;;;;;;17.25;9.30;;;;;;;7.25;100.00;102931.00;7392737;19;20517;-68
2023/12/17 09:45:49;;;;;;;14.85;8.52;;;;;;;7.26;100.00;102924.94;7394754;19;20014;-67
2023/12/17 09:48:17;;;;;;;14.70;9.20;;;;;;;7.28;100.00;102918.06;7394737;19;20078;-67
2023/12/17 09:50:46;;;;;;;17.15;9.93;;;;;;;7.30;100.00;102916.38;7394643;19;20078;-67
2023/12/17 09:53:15;;;;;;;16.23;9.95;;;;;;;7.30;100.00;102905.94;7393887;19;20082;-67
2023/12/17 09:55:43;;;;;;;13.05;9.07;;;;;;;7.32;100.00;102914.66;7394822;19;20082;-67
2023/12/17 09:58:12;;;;;;;13.18;8.75;;;;;;;7.34;100.00;102923.44;7394122;19;20502;-67
2023/12/17 10:00:43;;;;;;;13.02;8.55;;;;;;;7.39;100.00;102930.50;7394449;19;20424;-67
2023/12/17 10:03:13;;;;;;;15.82;9.15;;;;;;;7.42;100.00;102935.78;7396477;19;20015;-67
2023/12/17 10:05:42;;;;;;;13.48;9.00;;;;;;;7.46;100.00;102930.69;7398703;19;20021;-67
2023/12/17 10:08:11;;;;;;;13.20;8.70;;;;;;;7.47;100.00;102927.25;7402265;19;20018;-67
2023/12/17 10:10:39;;;;;;;12.85;9.18;;;;;;;7.52;100.00;102921.25;7401797;19;20026;-67
2023/12/17 10:13:08;;;;;;;14.93;9.07;;;;;;;7.55;100.00;102911.78;7400208;19;20015;-67
2023/12/17 10:15:39;;;;;;;14.75;8.95;;;;;;;7.57;100.00;102898.75;7405267;19;20022;-67
2023/12/17 10:18:10;;;;;;;13.70;9.55;;;;;;;7.60;100.00;102893.63;7399430;19;20022;-67
2023/12/17 10:20:39;;;;;;;15.07;10.20;;;;;;;7.61;100.00;102893.66;7401910;19;20016;-67
2023/12/17 10:23:07;;;;;;;15.85;9.45;;;;;;;7.63;100.00;102878.00;7400370;19;20070;-67
2023/12/17 10:25:36;;;;;;;15.55;9.20;;;;;;;7.65;100.00;102873.72;7401365;19;20082;-67
2023/12/17 10:28:04;;;;;;;14.77;9.88;;;;;;;7.68;100.00;102871.16;7400766;19;20079;-67
2023/12/17 10:30:34;;;;;;;16.75;9.45;;;;;;;7.70;100.00;102874.72;7401312;19;20014;-67
2023/12/17 10:33:05;;;;;;;17.27;11.40;;;;;;;7.71;100.00;102860.81;7400503;19;20078;-67
2023/12/17 10:35:37;;;;;;;15.85;9.60;;;;;;;7.73;100.00;102856.47;7400861;19;20003;-67
2023/12/17 10:38:08;;;;;;;13.65;9.40;;;;;;;7.76;100.00;102847.81;7400637;19;20086;-67
2023/12/17 10:40:39;;;;;;;16.42;9.98;;;;;;;7.78;100.00;102852.25;7401359;19;20019;-67
2023/12/17 10:43:09;;;;;;;14.35;9.93;;;;;;;7.81;100.00;102841.88;7399798;19;20007;-68
2023/12/17 10:45:38;;;;;;;15.40;10.05;;;;;;;7.83;100.00;102841.91;7400539;19;20023;-68
2023/12/17 10:48:07;;;;;;;16.30;10.40;;;;;;;7.87;100.00;102835.88;7397845;19;20018;-68
2023/12/17 10:50:40;;;;;;;14.20;9.85;;;;;;;7.90;100.00;102835.06;7400610;19;20082;-68
2023/12/17 10:53:08;;;;;;;19.60;10.70;;;;;;;7.93;100.00;102824.72;7399257;19;20516;-68
2023/12/17 10:55:37;;;;;;;17.45;10.57;;;;;;;7.96;100.00;102837.84;7400934;19;20078;-68
2023/12/17 10:58:07;;;;;;;18.77;11.18;;;;;;;8.01;100.00;102825.75;7399726;19;20517;-68
2023/12/17 11:00:39;;;;;;;14.77;9.90;;;;;;;8.04;100.00;102812.75;7399955;19;20536;-69
2023/12/17 11:03:09;;;;;;;16.45;10.60;;;;;;;8.09;100.00;102810.25;7399143;19;20153;-68
2023/12/17 11:05:56;;;;;;;16.45;9.77;;;;;;;8.10;98.86;102807.69;7400439;19;20424;-69
2023/12/17 11:08:26;;;;;;;16.15;10.63;;;;;;;8.14;100.00;102800.78;7397284;19;20066;-68
2023/12/17 11:10:57;;;;;;;16.55;10.43;;;;;;;8.17;100.00;102799.97;7399595;19;20032;-69
2023/12/17 11:13:27;;;;;;;16.88;10.43;;;;;;;8.18;99.54;102794.75;7397801;19;20017;-69
2023/12/17 11:15:56;;;;;;;17.95;10.25;;;;;;;8.17;99.62;102787.75;7394780;19;20014;-69
2023/12/17 11:18:25;;;;;;;17.92;10.65;;;;;;;8.18;100.00;102789.53;7396719;19;20078;-69
2023/12/17 11:20:56;;;;;;;14.90;9.55;;;;;;;8.19;100.00;102774.72;7399208;19;20022;-68
2023/12/17 11:23:25;;;;;;;15.20;10.43;;;;;;;8.20;100.00;102784.31;7398201;19;20018;-68